createdAt,value
2022-10-11T00:01:39.061Z,43.81
2022-10-11T00:04:05.394Z,43.54
2022-10-11T00:06:31.895Z,43.54
2022-10-11T00:08:58.151Z,43.74
2022-10-11T00:11:24.457Z,43.78
2022-10-11T00:13:50.743Z,43.71
2022-10-11T00:16:17.138Z,43.72
2022-10-11T00:18:43.449Z,43.57
2022-10-11T00:21:11.975Z,43.78
2022-10-11T00:23:38.801Z,43.75
2022-10-11T00:26:07.278Z,43.64
2022-10-11T00:28:34.231Z,43.78
2022-10-11T00:31:00.546Z,43.64
2022-10-11T00:33:26.774Z,43.90
2022-10-11T00:35:53.101Z,43.79
2022-10-11T00:38:19.876Z,43.85
2022-10-11T00:40:46.336Z,43.72
2022-10-11T00:43:23.309Z,43.92
2022-10-11T00:45:55.652Z,43.82
2022-10-11T00:48:23.959Z,43.57
2022-10-11T00:50:50.377Z,43.84
2022-10-11T00:53:16.874Z,43.81
2022-10-11T00:55:46.979Z,43.86
2022-10-11T00:58:13.485Z,44.02
2022-10-11T01:00:39.925Z,43.82
2022-10-11T01:03:06.281Z,43.88
2022-10-11T01:05:32.524Z,43.87
2022-10-11T01:08:00.146Z,43.87
2022-10-11T01:10:27.528Z,44.01
2022-10-11T01:13:02.549Z,43.96
2022-10-11T01:15:36.148Z,44.21
2022-10-11T01:18:16.547Z,43.88
2022-10-11T01:20:57.519Z,43.99
2022-10-11T01:23:23.723Z,43.93
2022-10-11T01:25:49.928Z,43.85
2022-10-11T01:28:35.082Z,44.10
2022-10-11T01:31:11.406Z,43.83
2022-10-11T01:33:41.239Z,43.38
2022-10-11T01:36:27.610Z,43.93
2022-10-11T01:38:58.617Z,43.96
2022-10-11T01:41:27.612Z,44.10
2022-10-11T01:43:57.601Z,44.15
2022-10-11T01:46:24.250Z,44.08
2022-10-11T01:48:52.168Z,44.25
2022-10-11T01:51:21.931Z,44.19
2022-10-11T01:53:48.370Z,44.20
2022-10-11T01:56:14.784Z,44.03
2022-10-11T01:58:48.269Z,44.18
2022-10-11T02:01:28.609Z,44.26
2022-10-11T02:04:03.967Z,44.31
2022-10-11T02:06:49.218Z,44.50
2022-10-11T02:09:21.713Z,44.24
2022-10-11T02:11:47.926Z,44.26
2022-10-11T02:14:20.703Z,44.30
2022-10-11T02:16:50.105Z,44.40
2022-10-11T02:19:18.607Z,44.15
2022-10-11T02:21:47.323Z,44.31
2022-10-11T02:24:18.221Z,44.11
2022-10-11T02:26:47.639Z,44.25
2022-10-11T02:29:16.408Z,44.18
2022-10-11T02:31:43.597Z,44.07
2022-10-11T02:34:14.818Z,44.30
2022-10-11T02:36:41.020Z,44.22
2022-10-11T02:39:14.423Z,44.36
2022-10-11T02:41:42.909Z,44.15
2022-10-11T02:44:12.735Z,44.24
2022-10-11T02:46:39.958Z,44.18
2022-10-11T02:49:09.784Z,44.19
2022-10-11T02:51:36.095Z,44.36
2022-10-11T02:54:04.925Z,44.25
2022-10-11T02:56:31.322Z,44.02
2022-10-11T02:58:58.030Z,44.01
2022-10-11T03:01:24.349Z,43.99
2022-10-11T03:03:50.742Z,44.18
2022-10-11T03:06:16.953Z,44.23
2022-10-11T03:08:43.369Z,44.18
2022-10-11T03:11:09.795Z,43.98
2022-10-11T03:13:36.053Z,44.26
2022-10-11T03:16:07.392Z,44.40
2022-10-11T03:18:35.455Z,44.25
2022-10-11T03:21:01.710Z,44.17
2022-10-11T03:23:27.972Z,44.31
2022-10-11T03:25:54.565Z,44.04
2022-10-11T03:28:20.983Z,44.62
2022-10-11T03:30:48.270Z,44.22
2022-10-11T03:33:14.826Z,44.28
2022-10-11T03:35:43.720Z,44.08
2022-10-11T03:38:13.035Z,44.71
2022-10-11T03:40:39.749Z,44.47
2022-10-11T03:43:06.148Z,44.75
2022-10-11T03:45:32.429Z,44.18
2022-10-11T03:47:58.853Z,44.44
2022-10-11T03:50:26.062Z,44.57
2022-10-11T03:52:52.331Z,44.37
2022-10-11T03:55:22.974Z,44.05
2022-10-11T03:57:49.456Z,44.23
2022-10-11T04:00:15.777Z,44.44
2022-10-11T04:02:44.393Z,44.63
2022-10-11T04:05:12.502Z,44.56
2022-10-11T04:07:39.291Z,44.77
2022-10-11T04:10:06.154Z,44.62
2022-10-11T04:12:32.575Z,44.57
2022-10-11T04:14:58.817Z,44.57
2022-10-11T04:17:25.155Z,44.66
2022-10-11T04:19:51.374Z,44.43
2022-10-11T04:22:18.055Z,44.59
2022-10-11T04:24:44.933Z,44.84
2022-10-11T04:27:12.187Z,44.50
2022-10-11T04:29:38.391Z,44.60
2022-10-11T04:32:04.687Z,44.53
2022-10-11T04:34:31.540Z,44.32
2022-10-11T04:36:57.969Z,44.47
2022-10-11T04:39:24.386Z,44.49
2022-10-11T04:41:50.915Z,44.07
2022-10-11T04:44:17.157Z,44.48
2022-10-11T04:46:43.578Z,44.01
2022-10-11T04:49:09.809Z,44.32
2022-10-11T04:51:36.226Z,44.33
2022-10-11T04:54:02.536Z,44.49
2022-10-11T04:56:30.718Z,44.37
2022-10-11T04:58:57.197Z,44.37
2022-10-11T05:01:24.530Z,44.70
2022-10-11T05:03:50.958Z,44.28
2022-10-11T05:06:17.303Z,44.83
2022-10-11T05:08:46.379Z,44.32
2022-10-11T05:11:15.765Z,44.30
2022-10-11T05:13:42.598Z,44.32
2022-10-11T05:16:11.179Z,44.70
2022-10-11T05:18:38.296Z,44.61
2022-10-11T05:21:14.935Z,44.37
2022-10-11T05:23:41.268Z,44.43
2022-10-11T05:26:08.238Z,44.64
2022-10-11T05:28:37.894Z,44.69
2022-10-11T05:31:04.642Z,44.25
2022-10-11T05:33:31.155Z,44.71
2022-10-11T05:35:57.474Z,44.70
2022-10-11T05:38:24.053Z,44.96
2022-10-11T05:40:50.319Z,44.58
2022-10-11T05:43:16.583Z,44.67
2022-10-11T05:45:45.205Z,44.93
2022-10-11T05:48:11.664Z,45.03
2022-10-11T05:50:39.068Z,44.60
2022-10-11T05:53:06.083Z,45.24
2022-10-11T05:55:36.012Z,44.67
2022-10-11T05:58:02.293Z,44.34
2022-10-11T06:00:29.042Z,44.99
2022-10-11T06:02:55.349Z,44.60
2022-10-11T06:05:21.778Z,44.72
2022-10-11T06:07:48.076Z,44.92
2022-10-11T06:10:14.296Z,44.89
2022-10-11T06:12:40.566Z,44.73
2022-10-11T06:15:08.657Z,44.95
2022-10-11T06:17:35.332Z,44.89
2022-10-11T06:20:04.017Z,44.48
2022-10-11T06:22:30.511Z,44.90
2022-10-11T06:24:56.911Z,45.14
2022-10-11T06:27:24.048Z,45.24
2022-10-11T06:29:51.882Z,44.63
2022-10-11T06:32:18.132Z,45.35
2022-10-11T06:34:44.737Z,45.03
2022-10-11T06:37:10.983Z,44.81
2022-10-11T06:39:39.866Z,45.24
2022-10-11T06:42:07.121Z,44.90
2022-10-11T06:44:33.398Z,44.74
2022-10-11T06:46:59.798Z,45.18
2022-10-11T06:49:26.005Z,45.29
2022-10-11T06:51:52.601Z,45.18
2022-10-11T06:54:19.156Z,45.55
2022-10-11T06:56:45.778Z,45.65
2022-10-11T06:59:13.565Z,45.38
2022-10-11T07:01:39.927Z,45.33
2022-10-11T07:04:06.330Z,45.52
2022-10-11T07:06:37.435Z,45.62
2022-10-11T07:09:06.019Z,45.19
2022-10-11T07:11:32.669Z,45.42
2022-10-11T07:14:00.698Z,45.36
2022-10-11T07:16:27.971Z,45.34
2022-10-11T07:18:59.854Z,45.31
2022-10-11T07:21:26.736Z,45.55
2022-10-11T07:23:53.043Z,45.72
2022-10-11T07:26:22.418Z,45.76
2022-10-11T07:28:48.871Z,45.61
2022-10-11T07:31:16.986Z,45.48
2022-10-11T07:33:43.541Z,45.55
2022-10-11T07:36:11.437Z,45.53
2022-10-11T07:38:41.919Z,45.55
2022-10-11T07:41:11.520Z,45.27
2022-10-11T07:43:38.262Z,45.37
2022-10-11T07:46:05.692Z,45.45
2022-10-11T07:48:34.823Z,45.52
2022-10-11T07:51:02.095Z,45.70
2022-10-11T07:53:30.929Z,45.35
2022-10-11T07:55:59.807Z,45.35
2022-10-11T07:58:26.040Z,45.53
2022-10-11T08:00:53.355Z,45.47
2022-10-11T08:03:19.781Z,45.68
2022-10-11T08:05:46.272Z,44.84
2022-10-11T08:08:13.615Z,45.51
2022-10-11T08:10:40.335Z,45.66
2022-10-11T08:13:07.125Z,45.75
2022-10-11T08:15:33.534Z,45.35
2022-10-11T08:17:59.965Z,45.57
2022-10-11T08:20:26.492Z,45.13
2022-10-11T08:22:52.770Z,45.44
2022-10-11T08:25:19.134Z,45.13
2022-10-11T08:27:45.584Z,45.30
2022-10-11T08:30:12.280Z,45.08
2022-10-11T08:32:40.734Z,44.71
2022-10-11T08:35:07.320Z,44.63
2022-10-11T08:37:33.665Z,45.25
2022-10-11T08:40:05.669Z,45.50
2022-10-11T08:42:52.440Z,44.88
2022-10-11T08:45:28.242Z,45.29
2022-10-11T08:48:02.616Z,45.50
2022-10-11T08:50:31.959Z,45.47
2022-10-11T08:53:07.989Z,45.09
2022-10-11T08:55:34.887Z,45.12
2022-10-11T08:58:02.003Z,45.48
2022-10-11T09:00:30.633Z,45.10
2022-10-11T09:03:09.013Z,45.08
2022-10-11T09:05:39.420Z,45.22
2022-10-11T09:08:10.342Z,45.39
2022-10-11T09:10:56.391Z,45.35
2022-10-11T09:13:42.572Z,45.37
2022-10-11T09:16:09.017Z,45.22
2022-10-11T09:18:42.679Z,45.16
2022-10-11T09:21:27.666Z,45.03
2022-10-11T09:24:02.122Z,44.99
2022-10-11T09:26:33.496Z,45.15
2022-10-11T09:29:05.612Z,44.87
2022-10-11T09:31:32.513Z,44.70
2022-10-11T09:34:02.007Z,44.76
2022-10-11T09:36:33.900Z,44.69
2022-10-11T09:39:13.549Z,44.85
2022-10-11T09:42:00.140Z,44.72
2022-10-11T09:44:29.874Z,44.72
2022-10-11T09:46:57.081Z,44.77
2022-10-11T09:49:31.820Z,44.69
2022-10-11T09:52:00.364Z,44.68
2022-10-11T09:54:38.860Z,44.50
2022-10-11T09:57:05.490Z,44.37
2022-10-11T09:59:34.616Z,44.38
2022-10-11T10:02:06.803Z,44.23
2022-10-11T10:04:33.284Z,43.94
2022-10-11T10:07:12.885Z,43.92
2022-10-11T10:09:39.189Z,43.82
2022-10-11T10:12:12.131Z,43.90
2022-10-11T10:14:39.727Z,43.88
2022-10-11T10:17:13.213Z,44.11
2022-10-11T10:19:45.434Z,43.58
2022-10-11T10:22:17.363Z,43.93
2022-10-11T10:24:43.857Z,43.77
2022-10-11T10:27:10.149Z,43.60
2022-10-11T10:29:36.745Z,43.56
2022-10-11T10:32:14.239Z,43.42
2022-10-11T10:34:50.393Z,43.46
2022-10-11T10:37:27.036Z,43.14
2022-10-11T10:40:02.386Z,43.18
2022-10-11T10:42:29.047Z,43.09
2022-10-11T10:45:02.213Z,43.27
2022-10-11T10:47:42.067Z,43.19
2022-10-11T10:50:31.642Z,43.55
2022-10-11T10:53:05.103Z,43.23
2022-10-11T10:55:37.619Z,43.10
2022-10-11T10:58:23.100Z,42.88
2022-10-11T11:00:50.713Z,43.10
2022-10-11T11:03:20.192Z,43.27
2022-10-11T11:06:02.334Z,42.79
2022-10-11T11:08:50.131Z,42.73
2022-10-11T11:11:18.031Z,42.47
2022-10-11T11:13:58.227Z,42.69
2022-10-11T11:16:33.574Z,42.80
2022-10-11T11:19:10.175Z,42.70
2022-10-11T11:21:44.020Z,42.83
2022-10-11T11:24:33.222Z,43.12
2022-10-11T11:27:06.771Z,42.79
2022-10-11T11:29:33.029Z,42.58
2022-10-11T11:32:13.876Z,42.51
2022-10-11T11:34:43.286Z,42.36
2022-10-11T11:37:15.438Z,42.37
2022-10-11T11:39:48.488Z,42.17
2022-10-11T11:42:26.941Z,42.02
2022-10-11T11:44:53.705Z,42.12
2022-10-11T11:47:23.430Z,41.60
2022-10-11T11:49:54.554Z,41.84
2022-10-11T11:52:26.818Z,41.68
2022-10-11T11:55:04.129Z,41.34
2022-10-11T11:57:45.903Z,41.13
2022-10-11T12:00:15.770Z,41.65
2022-10-11T12:02:50.198Z,41.78
2022-10-11T12:05:19.676Z,41.66
2022-10-11T12:07:49.118Z,41.69
2022-10-11T12:10:24.612Z,41.64
2022-10-11T12:13:01.465Z,41.54
2022-10-11T12:15:27.972Z,41.27
2022-10-11T12:17:57.602Z,41.13
2022-10-11T12:20:27.009Z,41.10
2022-10-11T12:22:56.301Z,41.28
2022-10-11T12:25:25.503Z,41.13
2022-10-11T12:27:53.202Z,41.20
2022-10-11T12:30:38.249Z,40.91
2022-10-11T12:33:24.940Z,40.98
2022-10-11T12:35:54.298Z,40.97
2022-10-11T12:38:21.022Z,40.93
2022-10-11T12:40:48.080Z,40.96
2022-10-11T12:43:14.401Z,41.24
2022-10-11T12:45:43.713Z,41.41
2022-10-11T12:48:20.274Z,41.18
2022-10-11T12:51:11.069Z,41.58
2022-10-11T12:54:14.669Z,41.75
2022-10-11T12:56:58.587Z,41.50
2022-10-11T12:59:26.689Z,42.11
2022-10-11T13:01:58.155Z,42.18
2022-10-11T13:04:26.834Z,41.98
2022-10-11T13:06:55.373Z,41.37
2022-10-11T13:09:28.069Z,41.46
2022-10-11T13:11:57.094Z,41.28
2022-10-11T13:14:24.498Z,41.75
2022-10-11T13:17:03.456Z,41.59
2022-10-11T13:19:33.088Z,41.07
2022-10-11T13:22:01.925Z,41.27
2022-10-11T13:24:34.119Z,41.39
2022-10-11T13:27:00.488Z,41.17
2022-10-11T13:29:34.417Z,41.64
2022-10-11T13:32:03.544Z,41.64
2022-10-11T13:34:35.288Z,41.36
2022-10-11T13:37:01.833Z,40.90
2022-10-11T13:39:31.199Z,40.74
2022-10-11T13:41:58.584Z,40.99
2022-10-11T13:44:25.351Z,39.91
2022-10-11T13:46:52.348Z,40.75
2022-10-11T13:49:53.257Z,40.64
2022-10-11T13:52:20.066Z,40.43
2022-10-11T13:54:55.707Z,40.32
2022-10-11T13:57:24.901Z,40.01
2022-10-11T13:59:51.174Z,39.75
2022-10-11T14:02:22.306Z,39.76
2022-10-11T14:04:49.125Z,39.40
2022-10-11T14:07:26.578Z,37.31
2022-10-11T14:09:53.759Z,38.11
2022-10-11T14:12:25.826Z,37.46
2022-10-11T14:14:52.457Z,39.72
2022-10-11T14:17:20.422Z,39.39
2022-10-11T14:19:48.312Z,39.08
2022-10-11T14:22:15.986Z,37.21
2022-10-11T14:24:43.104Z,37.93
2022-10-11T14:27:14.563Z,38.43
2022-10-11T14:30:00.345Z,38.43
2022-10-11T14:32:33.109Z,37.70
2022-10-11T14:34:59.973Z,38.29
2022-10-11T14:37:26.443Z,38.25
2022-10-11T14:39:52.772Z,38.38
2022-10-11T14:42:19.062Z,38.09
2022-10-11T14:44:45.511Z,38.23
2022-10-11T14:47:15.758Z,38.31
2022-10-11T14:49:42.389Z,37.92
2022-10-11T14:52:11.445Z,38.06
2022-10-11T14:54:37.917Z,38.19
2022-10-11T14:57:04.781Z,38.11
2022-10-11T14:59:36.590Z,38.17
2022-10-11T15:02:03.983Z,38.02
2022-10-11T15:04:30.251Z,38.57
2022-10-11T15:06:57.484Z,38.63
2022-10-11T15:09:24.226Z,38.68
2022-10-11T15:11:51.369Z,38.67
2022-10-11T15:14:17.620Z,38.82
2022-10-11T15:16:43.877Z,38.79
2022-10-11T15:19:22.107Z,38.84
2022-10-11T15:21:48.695Z,38.82
2022-10-11T15:24:15.328Z,38.84
2022-10-11T15:26:41.626Z,38.78
2022-10-11T15:29:10.666Z,38.77
2022-10-11T15:31:36.895Z,38.99
2022-10-11T15:34:03.383Z,39.20
2022-10-11T15:36:29.667Z,38.82
2022-10-11T15:38:56.355Z,39.02
2022-10-11T15:41:23.847Z,39.00
2022-10-11T15:43:50.213Z,39.23
2022-10-11T15:46:19.353Z,39.08
2022-10-11T15:48:45.847Z,39.33
2022-10-11T15:51:12.457Z,39.36
2022-10-11T15:53:38.904Z,39.48
2022-10-11T15:56:07.581Z,39.34
2022-10-11T15:58:35.696Z,39.43
2022-10-11T16:01:06.879Z,39.40
2022-10-11T16:03:34.381Z,39.31
2022-10-11T16:06:04.842Z,39.38
2022-10-11T16:08:31.848Z,39.22
2022-10-11T16:10:59.065Z,39.34
2022-10-11T16:13:25.346Z,39.44
2022-10-11T16:15:51.824Z,39.56
2022-10-11T16:18:20.164Z,39.54
2022-10-11T16:20:47.483Z,39.49
2022-10-11T16:23:14.717Z,39.62
2022-10-11T16:25:41.173Z,39.54
2022-10-11T16:28:11.022Z,39.36
2022-10-11T16:30:43.083Z,39.71
2022-10-11T16:33:09.410Z,39.61
2022-10-11T16:35:36.176Z,39.33
2022-10-11T16:38:02.596Z,39.71
2022-10-11T16:40:30.077Z,39.58
2022-10-11T16:42:56.382Z,39.62
2022-10-11T16:45:22.920Z,39.53
2022-10-11T16:47:49.370Z,39.69
2022-10-11T16:50:15.619Z,39.64
2022-10-11T16:52:42.098Z,39.68
2022-10-11T16:55:08.571Z,39.70
2022-10-11T16:57:35.072Z,39.78
2022-10-11T17:00:01.506Z,39.96
2022-10-11T17:02:32.259Z,40.19
2022-10-11T17:04:58.912Z,39.92
2022-10-11T17:07:25.272Z,40.00
2022-10-11T17:09:51.565Z,40.08
2022-10-11T17:12:19.488Z,40.26
2022-10-11T17:14:45.837Z,39.91
2022-10-11T17:17:12.132Z,40.21
2022-10-11T17:19:45.019Z,40.45
2022-10-11T17:22:12.105Z,40.24
2022-10-11T17:24:38.631Z,40.13
2022-10-11T17:27:05.473Z,40.19
2022-10-11T17:29:31.778Z,40.09
2022-10-11T17:31:58.149Z,40.11
2022-10-11T17:34:24.427Z,40.75
2022-10-11T17:36:50.769Z,40.74
2022-10-11T17:39:19.143Z,40.75
2022-10-11T17:41:45.929Z,40.88
2022-10-11T17:44:12.552Z,40.63
2022-10-11T17:46:39.090Z,40.79
2022-10-11T17:49:06.226Z,40.78
2022-10-11T17:51:33.125Z,40.37
2022-10-11T17:53:59.545Z,40.93
2022-10-11T17:56:29.540Z,40.98
2022-10-11T17:58:58.297Z,40.60
2022-10-11T18:01:26.048Z,40.86
2022-10-11T18:03:52.399Z,40.98
2022-10-11T18:06:18.895Z,40.87
2022-10-11T18:08:45.164Z,40.66
2022-10-11T18:11:13.086Z,41.31
2022-10-11T18:13:42.532Z,41.12
2022-10-11T18:16:20.689Z,40.88
2022-10-11T18:18:46.994Z,41.31
2022-10-11T18:21:13.635Z,40.94
2022-10-11T18:23:40.766Z,41.35
2022-10-11T18:26:10.117Z,41.39
2022-10-11T18:28:36.565Z,41.45
2022-10-11T18:31:09.996Z,41.44
2022-10-11T18:33:38.758Z,41.46
2022-10-11T18:36:06.453Z,41.34
2022-10-11T18:38:33.681Z,41.26
2022-10-11T18:41:04.644Z,41.10
2022-10-11T18:43:31.090Z,41.52
2022-10-11T18:46:07.688Z,41.32
2022-10-11T18:48:34.418Z,41.47
2022-10-11T18:51:01.583Z,41.32
2022-10-11T18:53:27.884Z,41.57
2022-10-11T18:55:57.831Z,41.25
2022-10-11T18:58:24.125Z,41.52
2022-10-11T19:00:50.435Z,41.51
2022-10-11T19:03:16.930Z,41.39
2022-10-11T19:05:43.340Z,41.58
2022-10-11T19:08:09.602Z,41.62
2022-10-11T19:10:36.354Z,41.53
2022-10-11T19:13:04.000Z,41.65
2022-10-11T19:15:30.229Z,41.87
2022-10-11T19:17:56.660Z,42.18
2022-10-11T19:20:23.180Z,41.91
2022-10-11T19:22:49.474Z,42.08
2022-10-11T19:25:15.905Z,41.96
2022-10-11T19:27:42.436Z,42.08
2022-10-11T19:30:08.825Z,41.98
2022-10-11T19:32:35.097Z,42.19
2022-10-11T19:35:01.370Z,42.19
2022-10-11T19:37:27.964Z,42.01
2022-10-11T19:39:54.171Z,42.09
2022-10-11T19:42:20.471Z,41.97
2022-10-11T19:44:46.873Z,42.28
2022-10-11T19:47:13.247Z,42.15
2022-10-11T19:49:39.488Z,42.12
2022-10-11T19:52:06.034Z,42.31
2022-10-11T19:54:32.274Z,42.32
2022-10-11T19:56:58.775Z,42.15
2022-10-11T19:59:26.734Z,42.26
2022-10-11T20:01:53.522Z,42.21
2022-10-11T20:07:06.718Z,42.41
2022-10-11T20:09:33.101Z,42.26
2022-10-11T20:11:59.372Z,42.37
2022-10-11T20:14:25.752Z,42.37
2022-10-11T20:16:52.290Z,42.33
2022-10-11T20:19:18.710Z,42.38
2022-10-11T20:21:45.300Z,42.47
2022-10-11T20:24:11.820Z,42.34
2022-10-11T20:26:39.180Z,42.48
2022-10-11T20:29:05.430Z,42.55
2022-10-11T20:31:33.077Z,42.37
2022-10-11T20:34:01.669Z,42.40
2022-10-11T20:36:29.922Z,42.50
2022-10-11T20:38:57.084Z,42.52
2022-10-11T20:41:24.564Z,42.39
2022-10-11T20:43:52.617Z,42.60
2022-10-11T20:46:30.064Z,42.50
2022-10-11T20:49:01.787Z,42.36
2022-10-11T20:51:29.172Z,42.58
2022-10-11T20:53:56.521Z,42.74
2022-10-11T20:56:23.186Z,42.60
2022-10-11T20:58:53.525Z,42.37
2022-10-11T21:01:21.073Z,42.40
2022-10-11T21:03:47.393Z,42.59
2022-10-11T21:06:13.707Z,42.53
2022-10-11T21:08:40.384Z,42.59
2022-10-11T21:11:07.472Z,42.49
2022-10-11T21:13:33.709Z,42.41
2022-10-11T21:16:12.194Z,42.78
2022-10-11T21:18:38.896Z,42.79
2022-10-11T21:21:09.318Z,42.37
2022-10-11T21:23:35.664Z,42.80
2022-10-11T21:26:05.428Z,42.75
2022-10-11T21:28:32.054Z,42.75
2022-10-11T21:31:12.156Z,42.74
2022-10-11T21:33:38.894Z,42.69
2022-10-11T21:36:12.377Z,42.25
2022-10-11T21:38:38.825Z,43.04
2022-10-11T21:41:05.947Z,43.04
2022-10-11T21:43:33.291Z,43.02
2022-10-11T21:45:59.627Z,43.17
2022-10-11T21:48:25.972Z,43.19
2022-10-11T21:50:52.942Z,43.16
2022-10-11T21:53:19.185Z,43.10
2022-10-11T21:55:45.601Z,43.01
2022-10-11T21:58:11.864Z,43.00
2022-10-11T22:00:38.185Z,43.17
2022-10-11T22:03:04.481Z,43.21
2022-10-11T22:05:30.881Z,43.13
2022-10-11T22:07:57.239Z,42.91
2022-10-11T22:10:23.519Z,43.15
2022-10-11T22:12:49.963Z,42.99
2022-10-11T22:15:16.232Z,42.86
2022-10-11T22:17:42.652Z,43.14
2022-10-11T22:20:09.689Z,42.89
2022-10-11T22:22:37.769Z,43.01
2022-10-11T22:25:04.426Z,42.73
2022-10-11T22:27:30.835Z,42.67
2022-10-11T22:29:57.231Z,42.88
2022-10-11T22:32:23.639Z,43.05
2022-10-11T22:34:50.071Z,43.23
2022-10-11T22:37:16.359Z,42.78
2022-10-11T22:39:42.810Z,43.07
2022-10-11T22:42:09.022Z,43.02
2022-10-11T22:44:35.320Z,42.85
2022-10-11T22:47:01.895Z,43.09
2022-10-11T22:49:28.342Z,42.76
2022-10-11T22:51:54.559Z,42.88
2022-10-11T22:54:20.982Z,43.23
2022-10-11T22:56:47.321Z,42.88
2022-10-11T22:59:13.763Z,42.91
2022-10-11T23:01:40.204Z,43.32
2022-10-11T23:04:06.550Z,43.35
2022-10-11T23:06:33.003Z,42.93
2022-10-11T23:08:59.268Z,42.96
2022-10-11T23:11:25.679Z,43.80
2022-10-11T23:13:51.971Z,43.47
2022-10-11T23:16:18.451Z,42.91
2022-10-11T23:18:44.962Z,43.38
2022-10-11T23:21:11.410Z,43.41
2022-10-11T23:23:39.553Z,43.55
2022-10-11T23:26:09.363Z,42.91
2022-10-11T23:28:36.367Z,43.55
2022-10-11T23:31:10.020Z,43.23
2022-10-11T23:33:36.288Z,42.96
2022-10-11T23:36:02.890Z,43.66
2022-10-11T23:38:29.564Z,43.92
2022-10-11T23:40:55.816Z,43.23
2022-10-11T23:43:22.867Z,43.43
2022-10-11T23:45:49.379Z,43.09
2022-10-11T23:48:15.647Z,43.33
2022-10-11T23:50:42.405Z,43.16
2022-10-11T23:53:08.685Z,43.12
2022-10-11T23:55:35.114Z,43.36
2022-10-11T23:58:01.402Z,43.07
